createdAt,value
2019-04-26T00:15:54.524Z,20.90
2019-04-26T00:45:57.141Z,20.70
2019-04-26T01:15:59.768Z,20.70
2019-04-26T01:46:02.404Z,20.50
2019-04-26T02:16:05.036Z,20.20
2019-04-26T02:46:07.640Z,19.60
2019-04-26T03:16:11.404Z,19.30
2019-04-26T03:46:20.024Z,19.20
2019-04-26T04:16:34.648Z,19.00
2019-04-26T04:46:50.349Z,19.10
2019-04-26T05:16:56.802Z,19.10
2019-04-26T05:47:17.414Z,19.10
2019-04-26T06:17:34.888Z,19.30
2019-04-26T06:47:40.740Z,19.60
2019-04-26T07:18:10.732Z,20.10
2019-04-26T07:48:35.901Z,20.80
2019-04-26T08:18:41.169Z,21.50
2019-04-26T08:48:43.750Z,22.20
2019-04-26T09:18:52.673Z,23.10
2019-04-26T09:48:50.701Z,24.00
2019-04-26T10:18:54.467Z,25.10
2019-04-26T10:49:08.276Z,26.40
2019-04-26T11:19:02.241Z,27.50
2019-04-26T11:49:07.145Z,28.50
2019-04-26T12:19:09.088Z,28.70
2019-04-26T12:49:11.703Z,28.50
2019-04-26T13:19:16.003Z,29.90
2019-04-26T13:49:19.368Z,31.00
2019-04-26T14:19:22.006Z,31.80
2019-04-26T14:49:26.157Z,32.80
2019-04-26T15:19:29.005Z,32.50
2019-04-26T15:49:34.729Z,31.40
2019-04-26T16:19:36.058Z,30.70
2019-04-26T16:49:41.789Z,28.50
2019-04-26T17:19:43.380Z,27.20
2019-04-26T17:49:46.004Z,26.20
2019-04-26T18:19:48.629Z,25.80
2019-04-26T18:49:52.113Z,25.30
2019-04-26T19:19:55.565Z,24.50
2019-04-26T19:49:58.208Z,23.80
2019-04-26T20:20:02.047Z,23.30
2019-04-26T20:50:06.385Z,23.20
2019-04-26T21:20:09.012Z,23.00
2019-04-26T21:50:13.544Z,22.10
2019-04-26T22:20:16.497Z,20.20
2019-04-26T22:50:21.007Z,18.90
2019-04-26T23:20:24.990Z,17.10
2019-04-26T23:50:29.469Z,15.70
